Time;durP1;ratioP1;P1;durP2;ratioP2;P2;SDS_P1;SDS_P2;PMS_P1;PMS_P2;Temp;Humidity;BMP_temperature;BMP_pressure;BME280_temperature;BME280_humidity;BME280_pressure;Samples;Min_cycle;Max_cycle;Signal;HPM_P1;HPM_P2
2022/03/03 00:01:53;;;;;;;74.87;44.63;;;;;;;;;;5100531;28;20424;-75
2022/03/03 00:04:19;;;;;;;77.40;44.35;;;;;;;;;;5085585;28;20449;-75
2022/03/03 00:06:45;;;;;;;74.28;44.28;;;;;;;;;;5104868;28;20413;-75
2022/03/03 00:09:11;;;;;;;80.32;45.97;;;;;;;;;;5104298;28;20903;-75
2022/03/03 00:11:38;;;;;;;76.63;44.63;;;;;;;;;;5089579;28;20844;-75
2022/03/03 00:14:04;;;;;;;78.28;44.53;;;;;;;;;;5102822;28;20416;-75
2022/03/03 00:16:30;;;;;;;75.80;44.85;;;;;;;;;;5079331;28;21180;-75
2022/03/03 00:18:57;;;;;;;75.60;45.28;;;2.70;99.90;;;;;;5101230;28;20424;-75
2022/03/03 00:21:23;;;;;;;77.28;43.28;;;;;;;;;;5085075;28;20443;-75
2022/03/03 00:23:49;;;;;;;74.63;44.65;;;;;;;;;;5092600;28;20971;-75
2022/03/03 00:26:15;;;;;;;77.38;44.83;;;;;;;;;;5089934;28;20978;-75
2022/03/03 00:28:42;;;;;;;77.65;44.90;;;;;;;;;;5083576;28;20464;-75
2022/03/03 00:31:08;;;;;;;74.82;42.70;;;;;;;;;;5103574;28;20480;-75
2022/03/03 00:33:34;;;;;;;74.70;44.83;;;;;;;;;;5092473;28;20429;-75
2022/03/03 00:36:00;;;;;;;76.37;44.57;;;;;;;;;;5058195;28;20495;-75
2022/03/03 00:38:26;;;;;;;77.50;44.35;;;;;;;;;;5083562;28;20923;-75
2022/03/03 00:40:52;;;;;;;78.10;44.38;;;;;;;;;;5107649;28;20937;-75
2022/03/03 00:43:19;;;;;;;79.05;45.00;;;;;;;;;;5082624;28;20491;-75
2022/03/03 00:45:45;;;;;;;80.07;45.30;;;;;;;;;;5098726;28;20420;-75
2022/03/03 00:48:11;;;;;;;73.57;43.27;;;;;;;;;;5090890;28;20501;-75
2022/03/03 00:50:37;;;;;;;77.88;43.47;;;;;;;;;;5097705;28;21010;-75
2022/03/03 00:53:04;;;;;;;78.85;43.60;;;;;;;;;;5101284;28;20408;-75
2022/03/03 00:55:30;;;;;;;74.57;43.50;;;;;;;;;;5097613;28;20425;-75
2022/03/03 00:57:56;;;;;;;78.45;43.80;;;;;;;;;;5102129;28;20425;-74
2022/03/03 01:00:22;;;;;;;77.20;44.17;;;;;;;;;;5108131;28;20424;-75
2022/03/03 01:02:51;;;;;;;79.20;44.92;;;;;;;;;;5080732;28;20419;-74
2022/03/03 01:05:18;;;;;;;82.20;45.45;;;;;;;;;;5110239;28;20983;-74
2022/03/03 01:07:44;;;;;;;76.93;44.05;;;;;;;;;;5098171;28;20885;-74
2022/03/03 01:10:11;;;;;;;79.15;44.42;;;1.80;99.90;;;;;;5110775;28;20424;-74
2022/03/03 01:12:38;;;;;;;81.20;44.97;;;;;;;;;;5103766;28;20428;-74
2022/03/03 01:15:05;;;;;;;77.95;44.13;;;;;;;;;;5096383;28;20471;-74
2022/03/03 01:17:32;;;;;;;78.43;44.72;;;;;;;;;;5092819;28;20614;-74
2022/03/03 01:19:58;;;;;;;83.63;45.33;;;;;;;;;;5104516;28;20964;-74
2022/03/03 01:22:24;;;;;;;84.72;46.42;;;;;;;;;;5085799;28;20925;-74
2022/03/03 01:24:50;;;;;;;81.97;45.88;;;;;;;;;;5082158;28;20404;-74
2022/03/03 01:27:16;;;;;;;76.18;44.85;;;;;;;;;;5106656;28;20451;-74
2022/03/03 01:29:43;;;;;;;78.28;44.22;;;;;;;;;;5101650;28;20416;-74
2022/03/03 01:32:09;;;;;;;78.28;44.92;;;;;;;;;;5083507;28;20426;-74
2022/03/03 01:34:36;;;;;;;80.83;45.30;;;;;;;;;;5099470;28;20423;-74
2022/03/03 01:37:02;;;;;;;86.00;48.03;;;;;;;;;;5083414;28;20922;-75
2022/03/03 01:39:28;;;;;;;84.82;46.03;;;;;;;;;;5088417;28;20433;-74
2022/03/03 01:41:54;;;;;;;86.63;46.85;;;;;;;;;;5105826;28;20424;-76
2022/03/03 01:44:20;;;;;;;88.07;47.57;;;;;;;;;;5104061;28;21006;-77
2022/03/03 01:46:53;;;;;;;92.25;49.65;;;;;;;;;;5107108;28;20798;-77
2022/03/03 01:49:20;;;;;;;89.73;48.57;;;;;;;;;;5088836;28;20434;-76
2022/03/03 01:51:46;;;;;;;90.82;48.47;;;;;;;;;;5100056;28;20451;-77
2022/03/03 01:54:12;;;;;;;89.82;47.85;;;;;;;;;;5109920;28;20412;-77
2022/03/03 01:56:40;;;;;;;90.40;48.15;;;1.20;99.90;;;;;;5108732;28;20439;-77
2022/03/03 01:59:06;;;;;;;84.80;46.92;;;;;;;;;;5092983;28;20813;-77
2022/03/03 02:01:32;;;;;;;86.37;46.57;;;;;;;;;;5109007;28;20502;-77
2022/03/03 02:03:58;;;;;;;93.93;49.50;;;;;;;;;;5101013;28;20429;-77
2022/03/03 02:06:25;;;;;;;87.87;48.23;;;;;;;;;;5087058;28;20764;-76
2022/03/03 02:08:52;;;;;;;91.55;48.47;;;;;;;;;;5098233;28;20431;-76
2022/03/03 02:11:20;;;;;;;93.18;47.95;;;;;;;;;;5107372;28;20444;-76
2022/03/03 02:13:46;;;;;;;96.43;50.85;;;;;;;;;;5107687;28;20857;-76
2022/03/03 02:16:12;;;;;;;98.63;50.95;;;;;;;;;;5088309;28;20542;-77
2022/03/03 02:18:42;;;;;;;103.13;51.63;;;;;;;;;;5096073;28;20964;-76
2022/03/03 02:21:12;;;;;;;96.97;49.53;;;;;;;;;;5103908;28;20416;-77
2022/03/03 02:23:38;;;;;;;90.93;48.90;;;;;;;;;;5092737;28;20748;-77
2022/03/03 02:26:04;;;;;;;92.60;49.30;;;;;;;;;;5110628;28;20492;-77
2022/03/03 02:28:31;;;;;;;102.20;52.95;;;;;;;;;;5073417;28;20415;-77
2022/03/03 02:30:57;;;;;;;103.35;52.63;;;;;;;;;;5098353;28;20833;-77
2022/03/03 02:33:23;;;;;;;105.82;53.08;;;;;;;;;;5110727;28;20768;-77
2022/03/03 02:35:49;;;;;;;105.97;53.25;;;;;;;;;;5102856;28;20423;-77
2022/03/03 02:38:15;;;;;;;105.40;52.70;;;;;;;;;;5087971;28;20487;-77
2022/03/03 02:40:41;;;;;;;111.80;56.03;;;;;;;;;;5091896;28;20557;-76
2022/03/03 02:43:07;;;;;;;111.05;55.53;;;;;;;;;;5108693;28;20458;-77
2022/03/03 02:45:33;;;;;;;106.57;53.80;;;;;;;;;;5095107;28;20422;-77
2022/03/03 02:47:59;;;;;;;111.55;54.75;;;;;;;;;;5079906;28;20445;-78
2022/03/03 02:50:25;;;;;;;104.43;53.63;;;;;;;;;;5095301;28;20423;-78
2022/03/03 02:52:52;;;;;;;110.28;54.03;;;;;;;;;;5100706;28;20408;-78
2022/03/03 02:55:18;;;;;;;119.90;56.00;;;;;;;;;;5064527;28;20763;-78
2022/03/03 02:57:54;;;;;;;104.05;53.88;;;;;;;;;;5092834;28;20501;-78
2022/03/03 03:00:21;;;;;;;107.43;54.20;;;;;;;;;;5092890;28;20430;-78
2022/03/03 03:02:47;;;;;;;110.18;54.13;;;;;;;;;;5083051;28;20414;-76
2022/03/03 03:05:13;;;;;;;97.47;51.17;;;;;;;;;;5094771;28;20423;-76
2022/03/03 03:07:39;;;;;;;111.10;55.20;;;;;;;;;;5099510;28;20474;-76
2022/03/03 03:10:06;;;;;;;107.63;53.55;;;;;;;;;;5080825;28;20513;-75
2022/03/03 03:12:33;;;;;;;98.00;52.80;;;;;;;;;;5095334;28;20413;-76
2022/03/03 03:14:59;;;;;;;110.88;54.85;;;;;;;;;;5097031;28;20929;-76
2022/03/03 03:17:25;;;;;;;112.53;54.22;;;;;;;;;;5086897;28;20415;-76
2022/03/03 03:19:51;;;;;;;116.72;56.17;;;;;;;;;;5087103;28;20422;-75
2022/03/03 03:22:17;;;;;;;112.57;53.78;;;;;;;;;;5092682;28;20448;-75
2022/03/03 03:24:43;;;;;;;107.72;55.20;;;;;;;;;;5101866;28;20756;-76
2022/03/03 03:27:09;;;;;;;105.10;53.15;;;;;;;;;;5098786;28;20925;-75
2022/03/03 03:29:35;;;;;;;104.00;54.17;;;;;;;;;;5082561;28;20416;-75
2022/03/03 03:32:01;;;;;;;112.60;57.38;;;;;;;;;;5106260;28;20443;-76
2022/03/03 03:34:27;;;;;;;109.00;53.40;;;;;;;;;;5096920;28;20493;-76
2022/03/03 03:36:53;;;;;;;103.55;53.25;;;;;;;;;;5082957;28;20485;-76
2022/03/03 03:39:19;;;;;;;102.85;53.65;;;;;;;;;;5110481;28;20408;-76
2022/03/03 03:41:46;;;;;;;100.93;53.22;;;;;;;;;;5089513;28;20474;-76
2022/03/03 03:44:12;;;;;;;98.15;52.00;;;;;;;;;;5102416;28;20413;-76
2022/03/03 03:46:38;;;;;;;102.00;53.35;;;;;;;;;;5102982;28;20504;-76
2022/03/03 03:49:05;;;;;;;98.03;52.00;;;;;;;;;;5101354;28;20420;-75
2022/03/03 03:51:31;;;;;;;100.37;51.13;;;;;;;;;;5084135;28;20914;-75
2022/03/03 03:53:57;;;;;;;102.28;52.30;;;;;;;;;;5109230;28;20462;-75
2022/03/03 03:56:23;;;;;;;93.82;51.20;;;;;;;;;;5100582;28;20416;-76
2022/03/03 03:58:50;;;;;;;100.70;53.50;;;;;;;;;;5066362;28;20943;-76
2022/03/03 04:01:16;;;;;;;98.28;52.25;;;;;;;;;;5076585;28;20424;-76
2022/03/03 04:03:43;;;;;;;101.68;52.13;;;;;;;;;;5083459;28;20410;-76
2022/03/03 04:06:09;;;;;;;98.90;51.22;;;;;;;;;;5103071;28;20421;-76
2022/03/03 04:08:36;;;;;;;95.67;52.23;;;;;;;;;;5085411;28;20574;-76
2022/03/03 04:11:03;;;;;;;99.60;51.47;;;;;;;;;;5102320;28;20448;-76
2022/03/03 04:13:29;;;;;;;94.40;51.10;;;;;;;;;;5085111;28;20422;-75
2022/03/03 04:15:55;;;;;;;91.88;49.80;;;;;;;;;;5106610;28;20416;-76
2022/03/03 04:18:21;;;;;;;84.47;49.90;;;;;;;;;;5083151;28;20488;-76
2022/03/03 04:20:47;;;;;;;86.28;48.55;;;;;;;;;;5099898;28;20414;-75
2022/03/03 04:23:16;;;;;;;88.35;49.50;;;;;;;;;;5079042;28;20420;-76
2022/03/03 04:25:43;;;;;;;87.57;48.00;;;;;;;;;;5095737;28;20482;-76
2022/03/03 04:28:09;;;;;;;85.78;46.95;;;;;;;;;;5103511;28;20948;-76
2022/03/03 04:30:35;;;;;;;81.55;46.42;;;;;;;;;;5091330;28;20430;-76
2022/03/03 04:33:01;;;;;;;78.38;45.42;;;;;;;;;;5083696;28;20412;-76
2022/03/03 04:35:28;;;;;;;79.25;45.03;;;;;;;;;;5099358;28;20761;-76
2022/03/03 04:37:54;;;;;;;78.72;44.70;;;;;;;;;;5091391;28;20407;-76
2022/03/03 04:40:20;;;;;;;81.72;44.75;;;;;;;;;;5079305;28;20925;-76
2022/03/03 04:42:46;;;;;;;81.30;46.50;;;;;;;;;;5094307;28;20412;-76
2022/03/03 04:45:13;;;;;;;79.45;45.17;;;;;;;;;;5100184;28;20502;-76
2022/03/03 04:47:39;;;;;;;78.47;44.83;;;;;;;;;;5083670;28;20423;-76
2022/03/03 04:50:05;;;;;;;76.70;44.42;;;;;;;;;;5098939;28;20507;-76
2022/03/03 04:52:32;;;;;;;74.90;43.58;;;;;;;;;;5098259;28;20471;-77
2022/03/03 04:54:58;;;;;;;76.72;43.22;;;;;;;;;;5077466;28;20408;-76
2022/03/03 04:57:24;;;;;;;70.93;42.25;;;;;;;;;;5070829;28;20415;-76
2022/03/03 04:59:50;;;;;;;68.53;41.95;;;;;;;;;;5094900;28;20465;-76
2022/03/03 05:02:16;;;;;;;66.57;40.03;;;;;;;;;;5078837;28;20422;-76
2022/03/03 05:04:42;;;;;;;65.32;40.58;;;;;;;;;;5103551;28;21952;-76
2022/03/03 05:07:08;;;;;;;64.45;39.53;;;;;;;;;;5077942;28;20483;-76
2022/03/03 05:09:34;;;;;;;66.38;41.03;;;;;;;;;;5082373;28;20448;-77
2022/03/03 05:12:00;;;;;;;62.42;39.13;;;;;;;;;;5083195;28;20418;-77
2022/03/03 05:14:27;;;;;;;62.75;39.33;;;;;;;;;;5080634;28;20414;-76
2022/03/03 05:16:53;;;;;;;63.53;39.20;;;;;;;;;;5100841;28;20962;-76
2022/03/03 05:19:19;;;;;;;65.10;38.88;;;;;;;;;;5105052;28;20416;-76
2022/03/03 05:21:45;;;;;;;64.13;39.85;;;;;;;;;;5087359;28;20423;-76
2022/03/03 05:24:11;;;;;;;67.32;40.22;;;;;;;;;;5091730;28;20416;-76
2022/03/03 05:26:37;;;;;;;64.57;38.75;;;;;;;;;;5103406;28;20424;-76
2022/03/03 05:29:03;;;;;;;61.78;38.78;;;;;;;;;;5093594;28;20409;-76
2022/03/03 05:31:29;;;;;;;62.85;38.15;;;;;;;;;;5091202;28;20421;-77
2022/03/03 05:33:55;;;;;;;63.30;39.35;;;;;;;;;;5076494;28;20419;-76
2022/03/03 05:36:24;;;;;;;65.75;39.90;;;;;;;;;;5064677;28;20551;-77
2022/03/03 05:38:50;;;;;;;65.65;39.47;;;;;;;;;;5095353;28;20953;-77
2022/03/03 05:41:16;;;;;;;65.43;39.38;;;;;;;;;;5077572;28;20510;-77
2022/03/03 05:43:42;;;;;;;61.70;39.05;;;;;;;;;;5104085;28;20856;-77
2022/03/03 05:46:09;;;;;;;70.05;42.30;;;;;;;;;;5099579;28;20412;-77
2022/03/03 05:48:35;;;;;;;66.93;41.53;;;;;;;;;;5080007;28;20430;-77
2022/03/03 05:51:01;;;;;;;71.85;42.17;;;;;;;;;;5097119;28;20773;-77
2022/03/03 05:53:27;;;;;;;68.43;42.65;;;;;;;;;;5080532;28;20486;-77
2022/03/03 05:55:55;;;;;;;70.30;43.65;;;;;;;;;;5077364;28;20421;-77
2022/03/03 05:58:23;;;;;;;63.05;39.17;;;;;;;;;;5074893;28;20399;-76
2022/03/03 06:00:53;;;;;;;70.18;41.08;;;-0.10;99.90;;;;;;5086099;28;20426;-76
2022/03/03 06:03:20;;;;;;;65.95;41.20;;;;;;;;;;5099335;28;20441;-76
2022/03/03 06:05:50;;;;;;;64.90;41.35;;;;;;;;;;5105306;28;20437;-77
2022/03/03 06:08:18;;;;;;;62.65;38.92;;;;;;;;;;5084450;28;20418;-77
2022/03/03 06:10:51;;;;;;;61.47;37.88;;;;;;;;;;5104081;28;20558;-77
2022/03/03 06:13:25;;;;;;;62.95;39.03;;;;;;;;;;5100292;28;20429;-77
2022/03/03 06:15:54;;;;;;;60.08;38.45;;;;;;;;;;5081550;28;20425;-77
2022/03/03 06:18:25;;;;;;;61.00;38.88;;;;;;;;;;5096936;28;20500;-77
2022/03/03 06:20:51;;;;;;;62.28;39.22;;;;;;;;;;5103729;28;20769;-77
2022/03/03 06:23:17;;;;;;;65.80;40.70;;;;;;;;;;5103068;28;20448;-76
2022/03/03 06:25:44;;;;;;;65.20;40.13;;;;;;;;;;5108397;28;20421;-76
2022/03/03 06:28:10;;;;;;;68.55;40.75;;;;;;;;;;5103904;28;20462;-77
2022/03/03 06:30:36;;;;;;;141.18;45.75;;;;;;;;;;5107579;28;20426;-76
2022/03/03 06:33:03;;;;;;;66.13;39.78;;;;;;;;;;5093802;28;20416;-77
2022/03/03 06:35:35;;;;;;;58.05;37.45;;;;;;;;;;5079381;28;20481;-78
2022/03/03 06:38:03;;;;;;;58.55;37.53;;;;;;;;;;5110024;28;20414;-79
2022/03/03 06:40:30;;;;;;;58.97;37.60;;;;;;;;;;5105629;28;20511;-77
2022/03/03 06:43:00;;;;;;;65.28;38.40;;;;;;;;;;5085025;28;20417;-77
2022/03/03 06:45:30;;;;;;;62.47;39.13;;;;;;;;;;5099715;28;20441;-78
2022/03/03 06:47:57;;;;;;;59.10;37.47;;;;;;;;;;5059466;28;20425;-78
2022/03/03 06:50:23;;;;;;;56.13;36.92;;;;;;;;;;5075553;28;20418;-79
2022/03/03 06:52:51;;;;;;;59.08;38.53;;;;;;;;;;5106250;28;20412;-78
2022/03/03 06:55:21;;;;;;;56.72;37.00;;;;;;;;;;5099262;28;20470;-77
2022/03/03 06:57:54;;;;;;;57.55;36.58;;;;;;;;;;5107251;28;21000;-78
2022/03/03 07:00:20;;;;;;;57.83;38.30;;;;;;;;;;5077513;28;20464;-78
2022/03/03 07:02:47;;;;;;;55.75;36.03;;;;;;;;;;5085669;28;20414;-77
2022/03/03 07:05:14;;;;;;;56.38;36.65;;;;;;;;;;5078084;28;20410;-76
2022/03/03 07:07:41;;;;;;;57.53;36.95;;;;;;;;;;5102027;28;20412;-76
2022/03/03 07:10:08;;;;;;;55.50;35.97;;;;;;;;;;5098663;28;20403;-75
2022/03/03 07:12:34;;;;;;;55.22;36.53;;;;;;;;;;5068843;28;20420;-76
2022/03/03 07:15:01;;;;;;;57.13;37.00;;;;;;;;;;5078732;28;20846;-75
2022/03/03 07:17:47;;;;;;;53.67;35.17;;;;;;;;;;5094583;28;20406;-77
2022/03/03 07:20:18;;;;;;;52.53;35.30;;;;;;;;;;5086732;28;20408;-77
2022/03/03 07:22:50;;;;;;;53.65;35.83;;;;;;;;;;5086031;28;20828;-76
2022/03/03 07:25:17;;;;;;;52.65;35.10;;;;;;;;;;5103161;28;20413;-77
2022/03/03 07:27:45;;;;;;;50.80;34.07;;;;;;;;;;5088423;28;20416;-77
2022/03/03 07:30:13;;;;;;;49.05;33.63;;;;;;;;;;5085191;28;20414;-77
2022/03/03 07:32:40;;;;;;;48.17;33.15;;;;;;;;;;5106651;28;20421;-77
2022/03/03 07:35:10;;;;;;;53.38;34.63;;;;;;;;;;5085607;28;20566;-77
2022/03/03 07:37:41;;;;;;;49.35;33.83;;;;;;;;;;5106337;28;20806;-77
2022/03/03 07:40:09;;;;;;;48.15;33.45;;;;;;;;;;5086389;28;20445;-77
2022/03/03 07:42:36;;;;;;;49.90;32.83;;;;;;;;;;5101408;28;20891;-77
2022/03/03 07:45:07;;;;;;;47.87;32.20;;;;;;;;;;5074400;28;20417;-77
2022/03/03 07:47:33;;;;;;;46.97;31.73;;;;;;;;;;5082169;28;20422;-78
2022/03/03 07:49:59;;;;;;;47.22;32.72;;;;;;;;;;5080346;28;20477;-77
2022/03/03 07:52:26;;;;;;;49.60;32.42;;;;;;;;;;5101402;28;20418;-78
2022/03/03 07:54:53;;;;;;;49.90;33.22;;;;;;;;;;5092090;28;20477;-77
2022/03/03 07:57:22;;;;;;;55.30;39.17;;;2.30;99.90;;;;;;5083325;28;20413;-77
2022/03/03 07:59:49;;;;;;;49.73;34.03;;;;;;;;;;5079665;28;20418;-74
2022/03/03 08:02:23;;;;;;;48.97;34.55;;;2.30;99.90;;;;;;5091591;28;20433;-74
2022/03/03 08:04:50;;;;;;;48.97;34.92;;;;;;;;;;5090643;28;20440;-74
2022/03/03 08:07:17;;;;;;;47.33;33.73;;;;;;;;;;5079130;28;20482;-74
2022/03/03 08:09:44;;;;;;;45.47;31.48;;;;;;;;;;5090962;28;20424;-74
2022/03/03 08:12:11;;;;;;;43.88;30.75;;;;;;;;;;5093994;28;20424;-75
2022/03/03 08:14:38;;;;;;;42.22;30.40;;;;;;;;;;5069619;28;20503;-75
2022/03/03 08:17:04;;;;;;;44.13;30.13;;;;;;;;;;5093550;28;20422;-74
2022/03/03 08:19:31;;;;;;;43.90;30.17;;;;;;;;;;5096886;28;20459;-74
2022/03/03 08:21:57;;;;;;;44.83;30.52;;;;;;;;;;5073864;28;22182;-74
2022/03/03 08:24:26;;;;;;;41.72;29.83;;;3.40;99.90;;;;;;5091227;28;20405;-74
2022/03/03 08:26:55;;;;;;;42.40;29.65;;;;;;;;;;5106713;27;20410;-74
2022/03/03 08:29:21;;;;;;;42.33;29.95;;;;;;;;;;5090981;28;20420;-74
2022/03/03 08:31:53;;;;;;;42.28;28.77;;;;;;;;;;5097501;28;20427;-73
2022/03/03 08:34:23;;;;;;;40.03;28.90;;;;;;;;;;5091804;28;21077;-74
2022/03/03 08:37:00;;;;;;;39.63;28.27;;;3.30;99.90;;;;;;5090630;28;20417;-74
2022/03/03 08:39:28;;;;;;;38.92;29.02;;;;;;;;;;5079296;28;20497;-74
2022/03/03 08:41:56;;;;;;;40.15;28.10;;;;;;;;;;5068754;28;20420;-74
2022/03/03 08:44:25;;;;;;;39.55;29.05;;;;;;;;;;5088576;28;21288;-74
2022/03/03 08:46:51;;;;;;;39.78;27.33;;;;;;;;;;5091455;28;20420;-73
2022/03/03 08:49:17;;;;;;;40.33;28.17;;;;;;;;;;5087147;28;20738;-73
2022/03/03 08:51:43;;;;;;;37.78;26.05;;;;;;;;;;5072529;28;20941;-73
2022/03/03 08:54:11;;;;;;;39.90;28.45;;;;;;;;;;5070909;28;20416;-72
2022/03/03 08:56:37;;;;;;;39.72;28.17;;;;;;;;;;5068601;28;20511;-72
2022/03/03 08:59:03;;;;;;;40.22;27.98;;;;;;;;;;5070699;28;20414;-72
2022/03/03 09:01:30;;;;;;;38.67;27.40;;;;;;;;;;5087697;28;20428;-72
2022/03/03 09:03:57;;;;;;;39.33;27.58;;;;;;;;;;5089810;28;20511;-72
2022/03/03 09:06:24;;;;;;;33.65;24.25;;;;;;;;;;5083280;28;20460;-73
2022/03/03 09:08:51;;;;;;;33.05;24.08;;;;;;;;;;5068853;28;20409;-73
2022/03/03 09:11:18;;;;;;;36.58;24.42;;;;;;;;;;5087361;28;20472;-73
2022/03/03 09:13:44;;;;;;;34.05;24.35;;;;;;;;;;5071535;28;20467;-73
2022/03/03 09:16:11;;;;;;;35.83;25.40;;;;;;;;;;5106149;27;20411;-73
2022/03/03 09:18:37;;;;;;;33.05;23.05;;;;;;;;;;5070197;28;20869;-73
2022/03/03 09:21:03;;;;;;;34.75;22.85;;;;;;;;;;5086054;28;20499;-73
2022/03/03 09:23:29;;;;;;;31.48;22.30;;;;;;;;;;5088734;28;20423;-72
2022/03/03 09:25:55;;;;;;;31.33;22.53;;;;;;;;;;5090717;28;20431;-72
2022/03/03 09:28:21;;;;;;;28.85;22.25;;;;;;;;;;5071063;28;20418;-73
2022/03/03 09:30:49;;;;;;;31.05;22.38;;;;;;;;;;5086575;28;20428;-73
2022/03/03 09:33:15;;;;;;;29.17;21.63;;;;;;;;;;5086600;28;20507;-73
2022/03/03 09:35:41;;;;;;;30.17;21.48;;;;;;;;;;5069824;28;20420;-73
2022/03/03 09:38:07;;;;;;;26.87;20.83;;;;;;;;;;5089779;28;20409;-73
2022/03/03 09:40:33;;;;;;;27.60;21.15;;;;;;;;;;5086039;28;21011;-73
2022/03/03 09:43:05;;;;;;;26.83;20.77;;;;;;;;;;5090661;28;20418;-73
2022/03/03 09:45:32;;;;;;;28.42;21.33;;;;;;;;;;5073365;28;20420;-73
2022/03/03 09:48:00;;;;;;;28.48;20.55;;;;;;;;;;5072874;28;20429;-73
2022/03/03 09:50:27;;;;;;;28.02;20.30;;;;;;;;;;5070821;28;20432;-72
2022/03/03 09:52:53;;;;;;;28.10;20.75;;;;;;;;;;5072375;28;20428;-73
2022/03/03 09:55:20;;;;;;;30.05;20.77;;;;;;;;;;5088170;28;20423;-72
2022/03/03 09:57:46;;;;;;;27.63;20.77;;;;;;;;;;5093056;28;20449;-73
2022/03/03 10:00:12;;;;;;;28.40;20.90;;;;;;;;;;5073302;28;20985;-73
2022/03/03 10:03:09;;;;;;;29.63;21.65;;;7.40;99.90;;;;;;5078538;28;20506;-72
2022/03/03 10:05:45;;;;;;;28.05;21.40;;;;;;;;;;5072627;28;20469;-72
2022/03/03 10:08:12;;;;;;;28.25;22.20;;;;;;;;;;5089838;28;20412;-73
2022/03/03 10:10:40;;;;;;;26.75;20.27;;;;;;;;;;5091271;28;20915;-73
2022/03/03 10:13:06;;;;;;;29.08;20.27;;;;;;;;;;5073272;28;20422;-74
2022/03/03 10:15:33;;;;;;;25.65;20.10;;;;;;;;;;5109018;27;20446;-74
2022/03/03 10:18:02;;;;;;;27.27;20.75;;;;;;;;;;5088825;28;20950;-73
2022/03/03 10:20:30;;;;;;;24.70;19.13;;;;;;;;;;5071722;28;20451;-73
2022/03/03 10:22:59;;;;;;;27.50;18.90;;;;;;;;;;5090159;28;20424;-74
2022/03/03 10:25:32;;;;;;;26.23;19.10;;;;;;;;;;5091746;28;20747;-73
2022/03/03 10:28:25;;;;;;;23.90;18.60;;;;;;;;;;5073548;28;20606;-73
2022/03/03 10:30:54;;;;;;;24.17;18.67;;;;;;;;;;5086031;28;21082;-72
2022/03/03 10:33:22;;;;;;;23.77;18.00;;;7.90;99.90;;;;;;5090042;28;20416;-73
2022/03/03 10:35:57;;;;;;;24.83;18.00;;;;;;;;;;5089978;28;20479;-72
2022/03/03 10:38:24;;;;;;;22.90;17.55;;;;;;;;;;5089120;28;20469;-73
2022/03/03 10:40:50;;;;;;;23.98;18.17;;;;;;;;;;5091699;28;20788;-73
2022/03/03 10:43:16;;;;;;;23.40;17.92;;;;;;;;;;5089247;28;20455;-73
2022/03/03 10:45:56;;;;;;;23.13;17.23;;;;;;;;;;5092902;28;20499;-73
2022/03/03 10:48:23;;;;;;;22.92;17.90;;;;;;;;;;5072704;28;20954;-72
2022/03/03 10:50:50;;;;;;;23.33;17.45;;;8.70;99.90;;;;;;5091381;28;20819;-72
2022/03/03 10:53:20;;;;;;;22.95;17.60;;;;;;;;;;5091756;28;20412;-72
2022/03/03 10:56:19;;;;;;;23.45;17.25;;;;;;;;;;5089728;28;20428;-72
2022/03/03 10:58:45;;;;;;;21.92;17.52;;;;;;;;;;5063015;28;20809;-72
2022/03/03 11:01:11;;;;;;;21.60;15.82;;;9.30;99.90;;;;;;5089720;28;20421;-72
2022/03/03 11:03:39;;;;;;;21.73;15.85;;;;;;;;;;5108523;27;20481;-72
2022/03/03 11:06:06;;;;;;;20.65;15.45;;;9.30;99.90;;;;;;5109916;27;20490;-72
2022/03/03 11:08:32;;;;;;;20.77;15.52;;;;;;;;;;5109075;27;20531;-73
2022/03/03 11:10:58;;;;;;;20.48;16.13;;;;;;;;;;5098562;28;20484;-72
2022/03/03 11:13:24;;;;;;;22.65;15.98;;;9.50;99.90;;;;;;5078546;28;20416;-73
2022/03/03 11:15:52;;;;;;;20.15;15.38;;;;;;;;;;5100900;28;20788;-73
2022/03/03 11:18:19;;;;;;;20.17;16.27;;;;;;;;;;5079592;28;20416;-73
2022/03/03 11:20:51;;;;;;;20.30;15.20;;;;;;;;;;5094204;28;20455;-73
2022/03/03 11:23:17;;;;;;;24.92;16.02;;;;;;;;;;5111079;27;20424;-73
2022/03/03 11:25:48;;;;;;;20.98;15.50;;;10.00;99.90;;;;;;5094377;28;20439;-72
2022/03/03 11:28:15;;;;;;;21.25;15.73;;;;;;;;;;5093734;28;20517;-73
2022/03/03 11:30:45;;;;;;;18.13;14.25;;;;;;;;;;5093659;28;20436;-72
2022/03/03 11:33:26;;;;;;;19.70;14.20;;;10.10;99.90;;;;;;5079431;28;20400;-73
2022/03/03 11:36:00;;;;;;;20.30;15.40;;;;;;;;;;5092740;28;20700;-72
2022/03/03 11:38:43;;;;;;;19.75;15.30;;;10.00;99.90;;;;;;5110804;27;20423;-72
2022/03/03 11:41:09;;;;;;;19.63;14.95;;;;;;;;;;5098413;28;20435;-72
2022/03/03 11:43:49;;;;;;;20.13;15.33;;;10.00;99.90;;;;;;5097262;28;20989;-72
2022/03/03 11:46:50;;;;;;;21.33;15.43;;;10.00;99.90;;;;;;5094156;28;20429;-73
2022/03/03 11:49:23;;;;;;;19.50;15.15;;;;;;;;;;5099804;28;20434;-72
2022/03/03 11:51:50;;;;;;;20.58;14.63;;;10.10;99.90;;;;;;5074312;28;20421;-72
2022/03/03 11:54:23;;;;;;;18.20;13.93;;;;;;;;;;5100968;28;20420;-73
2022/03/03 11:57:08;;;;;;;16.27;12.95;;;;;;;;;;5096732;28;20432;-72
2022/03/03 11:59:41;;;;;;;17.15;12.70;;;10.10;99.90;;;;;;5093387;28;20668;-72
2022/03/03 12:02:08;;;;;;;16.42;12.50;;;10.00;99.90;;;;;;5097657;28;20828;-73
2022/03/03 12:04:37;;;;;;;16.10;13.48;;;;;;;;;;5094746;28;20471;-72
2022/03/03 12:07:03;;;;;;;18.13;13.95;;;;;;;;;;5093283;28;20810;-72
2022/03/03 12:09:32;;;;;;;18.15;14.13;;;10.50;99.90;;;;;;5076428;28;20535;-73
2022/03/03 12:12:19;;;;;;;20.00;14.32;;;;;;;;;;5092171;28;20463;-72
2022/03/03 12:14:49;;;;;;;19.75;15.85;;;;;;;;;;5075074;28;20555;-72
2022/03/03 12:17:33;;;;;;;19.58;16.15;;;;;;;;;;5076505;28;20523;-72
2022/03/03 12:20:24;;;;;;;20.00;15.27;;;10.30;99.90;;;;;;5091842;28;20419;-72
2022/03/03 12:23:03;;;;;;;19.73;14.60;;;;;;;;;;5075582;28;20417;-71
2022/03/03 12:25:47;;;;;;;18.60;14.30;;;;;;;;;;5095754;28;20542;-72
2022/03/03 12:28:20;;;;;;;17.75;14.60;;;;;;;;;;5073055;28;21095;-72
2022/03/03 12:30:47;;;;;;;19.67;14.90;;;10.30;99.90;;;;;;5094012;28;20512;-72
2022/03/03 12:33:27;;;;;;;20.58;15.95;;;10.30;99.90;;;;;;5077035;28;20412;-72
2022/03/03 12:36:05;;;;;;;21.35;15.70;;;10.60;99.90;;;;;;5077652;28;20427;-73
2022/03/03 12:38:33;;;;;;;20.45;16.08;;;;;;;;;;5088278;28;20455;-74
2022/03/03 12:41:00;;;;;;;20.38;16.77;;;;;;;;;;5092182;28;20469;-73
2022/03/03 12:43:26;;;;;;;20.77;16.10;;;;;;;;;;5088330;28;20934;-73
2022/03/03 12:45:52;;;;;;;20.13;16.65;;;;;;;;;;5070808;28;20420;-74
2022/03/03 12:48:32;;;;;;;20.83;14.63;;;;;;;;;;5084393;28;21333;-73
2022/03/03 12:51:05;;;;;;;18.90;14.55;;;10.60;99.90;;;;;;5070529;28;20417;-73
2022/03/03 12:53:42;;;;;;;20.05;15.55;;;10.60;99.90;;;;;;5087557;28;20422;-74
2022/03/03 12:56:08;;;;;;;20.40;14.80;;;;;;;;;;5088105;28;20427;-73
2022/03/03 12:58:35;;;;;;;17.83;14.55;;;;;;;;;;5068984;28;20757;-74
2022/03/03 13:01:01;;;;;;;18.35;15.05;;;;;;;;;;5069263;28;20471;-75
2022/03/03 13:03:37;;;;;;;20.33;15.05;;;;;;;;;;5096688;28;20938;-74
2022/03/03 13:06:03;;;;;;;20.00;14.88;;;10.60;99.90;;;;;;5070417;28;20424;-74
2022/03/03 13:08:34;;;;;;;18.02;14.70;;;;;;;;;;5069741;28;20419;-74
2022/03/03 13:11:05;;;;;;;17.73;14.17;;;10.80;99.90;;;;;;5098114;28;20429;-74
2022/03/03 13:13:47;;;;;;;19.45;14.43;;;;;;;;;;5088220;28;20431;-73
2022/03/03 13:16:15;;;;;;;19.98;15.15;;;10.70;99.90;;;;;;5103904;27;20416;-74
2022/03/03 13:18:42;;;;;;;18.67;14.70;;;;;;;;;;5084198;28;20560;-74
2022/03/03 13:21:09;;;;;;;18.90;14.80;;;;;;;;;;5088311;28;20510;-73
2022/03/03 13:23:42;;;;;;;18.35;14.52;;;11.10;99.90;;;;;;5073031;28;20408;-74
2022/03/03 13:26:10;;;;;;;21.08;15.18;;;;;;;;;;5081365;28;20431;-74
2022/03/03 13:29:11;;;;;;;19.98;14.90;;;10.40;99.90;;;;;;5084760;28;20478;-74
2022/03/03 13:31:37;;;;;;;21.83;15.47;;;;;;;;;;5087422;28;20504;-74
2022/03/03 13:34:05;;;;;;;17.40;14.68;;;;;;;;;;5070871;28;21520;-74
2022/03/03 13:36:42;;;;;;;18.17;15.20;;;;;;;;;;5087924;28;20446;-73
2022/03/03 13:39:22;;;;;;;19.65;14.60;;;10.30;99.90;;;;;;5106281;27;20407;-74
2022/03/03 13:41:58;;;;;;;19.17;15.52;;;;;;;;;;5089106;28;20883;-73
2022/03/03 13:44:24;;;;;;;19.15;14.98;;;;;;;;;;5069364;28;20483;-74
2022/03/03 13:47:00;;;;;;;19.05;14.35;;;;;;;;;;5071755;28;20471;-73
2022/03/03 13:49:30;;;;;;;18.88;15.00;;;;;;;;;;5088750;28;20432;-74
2022/03/03 13:52:03;;;;;;;18.17;14.15;;;;;;;;;;5086807;28;20428;-73
2022/03/03 13:54:48;;;;;;;19.45;14.30;;;;;;;;;;5088445;28;20506;-73
2022/03/03 13:57:40;;;;;;;18.38;14.05;;;10.40;99.90;;;;;;5086750;28;20508;-74
2022/03/03 14:00:12;;;;;;;19.00;13.13;;;;;;;;;;5088873;28;20455;-73
2022/03/03 14:03:04;;;;;;;16.05;12.93;;;;;;;;;;5088942;28;20426;-72
2022/03/03 14:05:37;;;;;;;16.77;12.53;;;;;;;;;;5066276;28;20462;-73
2022/03/03 14:08:04;;;;;;;18.65;13.80;;;;;;;;;;5077744;28;20472;-73
2022/03/03 14:10:46;;;;;;;17.30;13.63;;;10.30;99.90;;;;;;5073394;28;20408;-73
2022/03/03 14:13:12;;;;;;;18.13;14.57;;;;;;;;;;5071905;28;20935;-72